Time;durP1;ratioP1;P1;durP2;ratioP2;P2;SDS_P1;SDS_P2;PMS_P1;PMS_P2;Temp;Humidity;BMP_temperature;BMP_pressure;BME280_temperature;BME280_humidity;BME280_pressure;Samples;Min_cycle;Max_cycle;Signal;HPM_P1;HPM_P2
2023/07/10 00:01:06;;;;;;;5.72;4.57;;;;;;;27.06;56.64;101457.00;5039640;28;20395;-54
2023/07/10 00:03:34;;;;;;;4.40;4.00;;;;;;;27.06;56.75;101457.88;5035315;28;20395;-52
2023/07/10 00:06:01;;;;;;;7.13;4.30;;;;;;;27.07;56.85;101459.56;5034962;28;20049;-53
2023/07/10 00:08:29;;;;;;;5.97;5.20;;;;;;;27.08;56.94;101458.53;5034590;28;20065;-54
2023/07/10 00:10:59;;;;;;;6.05;4.80;;;;;;;27.08;57.00;101463.97;5034839;28;20045;-54
2023/07/10 00:13:26;;;;;;;6.55;4.70;;;;;;;27.10;56.75;101461.09;5034627;28;20519;-55
2023/07/10 00:15:54;;;;;;;6.78;4.72;;;;;;;27.09;56.91;101454.78;5034598;28;20037;-54
2023/07/10 00:18:22;;;;;;;5.55;4.72;;;;;;;27.11;56.82;101458.25;5033347;28;20052;-59
2023/07/10 00:20:50;;;;;;;7.22;5.30;;;;;;;27.11;56.81;101463.69;5034897;28;20053;-59
2023/07/10 00:23:18;;;;;;;5.22;4.40;;;;;;;27.12;56.73;101459.09;5034249;28;20052;-59
2023/07/10 00:25:46;;;;;;;7.25;4.63;;;;;;;27.13;56.79;101460.78;5034504;28;20044;-59
2023/07/10 00:28:17;;;;;;;5.18;4.38;;;;;;;27.14;56.68;101464.34;5034257;28;20052;-59
2023/07/10 00:30:47;;;;;;;7.22;5.07;;;;;;;27.15;56.80;101460.63;5034414;28;20050;-59
2023/07/10 00:33:16;;;;;;;6.25;4.97;;;;;;;27.15;56.82;101458.75;5033568;28;20391;-59
2023/07/10 00:35:44;;;;;;;5.82;4.75;;;;;;;27.16;56.72;101459.59;5033819;28;20488;-59
2023/07/10 00:38:24;;;;;;;6.43;5.18;;;;;;;27.17;56.71;101461.31;5033072;28;20488;-60
2023/07/10 00:40:53;;;;;;;5.72;4.50;;;;;;;27.17;56.56;101461.31;5033362;28;20053;-59
2023/07/10 00:43:41;;;;;;;5.38;4.82;;;;;;;27.18;56.69;101466.56;5033854;28;20041;-59
2023/07/10 00:46:29;;;;;;;5.38;4.68;;;;;;;27.19;56.46;101472.88;5032877;28;20049;-59
2023/07/10 00:49:02;;;;;;;6.15;4.85;;;;;;;27.18;56.59;101465.72;5032691;28;20060;-59
2023/07/10 00:52:00;;;;;;;5.30;4.80;;;;;;;27.18;56.74;101469.28;5034117;28;20046;-59
2023/07/10 00:54:39;;;;;;;5.78;4.60;;;;;;;27.19;56.37;101465.56;5034309;28;20395;-59
2023/07/10 00:57:14;;;;;;;5.75;4.65;;;;;;;27.20;56.47;101469.13;5031997;28;20056;-55
2023/07/10 00:59:42;;;;;;;5.53;4.93;;;;;;;27.20;56.46;101467.25;5032671;28;20056;-55
2023/07/10 01:02:12;;;;;;;6.90;4.75;;;;;;;27.22;56.50;101464.34;5044688;28;20029;-55
2023/07/10 01:04:42;;;;;;;6.82;4.97;;;;;;;27.22;56.41;101467.06;5052987;28;20391;-53
2023/07/10 01:07:16;;;;;;;6.70;4.72;;;;;;;27.23;56.35;101464.19;5052680;28;20467;-52
2023/07/10 01:09:50;;;;;;;5.32;4.68;;;;;;;27.24;56.57;101475.91;5053421;28;20407;-54
2023/07/10 01:12:19;;;;;;;6.78;4.75;;;;;;;27.25;56.75;101466.75;5054092;28;20040;-53
2023/07/10 01:14:46;;;;;;;6.07;5.25;;;;;;;27.24;56.25;101476.78;5053388;28;20052;-54
2023/07/10 01:17:14;;;;;;;5.80;4.90;;;;;;;27.25;56.58;101464.88;5053526;28;20041;-59
2023/07/10 01:19:45;;;;;;;5.60;5.00;;;;;;;27.25;56.14;101473.03;5052815;28;20056;-59
2023/07/10 01:22:15;;;;;;;6.18;5.07;;;;;;;27.27;56.28;101471.00;5052667;28;20060;-59
2023/07/10 01:24:42;;;;;;;5.90;5.05;;;;;;;27.26;56.51;101466.56;5053313;28;20045;-59
2023/07/10 01:27:12;;;;;;;5.63;4.95;;;;;;;27.28;56.57;101460.97;5052987;28;20049;-59
2023/07/10 01:29:47;;;;;;;5.50;4.68;;;;;;;27.28;56.32;101466.41;5053818;28;20057;-59
2023/07/10 01:32:17;;;;;;;6.00;4.30;;;;;;;27.28;56.60;101458.25;5053478;28;20056;-59
2023/07/10 01:34:50;;;;;;;6.03;4.88;;;;;;;27.29;56.21;101460.78;5032783;28;20057;-59
2023/07/10 01:37:18;;;;;;;5.18;4.53;;;;;;;27.30;56.44;101456.19;5032246;28;20407;-59
2023/07/10 01:39:48;;;;;;;5.82;5.18;;;;;;;27.30;56.27;101459.75;5033236;28;20055;-59
2023/07/10 01:42:15;;;;;;;5.63;4.75;;;;;;;27.30;56.05;101451.59;5033793;28;20041;-59
2023/07/10 01:44:45;;;;;;;5.95;4.78;;;;;;;27.32;56.15;101459.63;5031741;28;20423;-59
2023/07/10 01:47:14;;;;;;;5.82;5.05;;;;;;;27.32;56.14;101444.16;5032060;28;20399;-54
2023/07/10 01:49:54;;;;;;;5.18;4.68;;;;;;;27.32;56.57;101455.03;5032841;28;20049;-53
2023/07/10 01:52:24;;;;;;;6.05;5.05;;;;;;;27.32;56.34;101446.03;5032459;28;20050;-55
2023/07/10 01:54:52;;;;;;;6.13;4.72;;;;;;;27.33;56.42;101445.00;5032959;28;20072;-55
2023/07/10 01:57:25;;;;;;;5.90;5.00;;;;;;;27.33;56.24;101450.44;5033227;28;20045;-54
2023/07/10 01:59:53;;;;;;;5.38;4.57;;;;;;;27.34;56.34;101449.41;5032119;28;20305;-56
2023/07/10 02:02:20;;;;;;;5.57;4.60;;;;;;;27.34;56.20;101452.97;5040131;28;20053;-54
2023/07/10 02:04:49;;;;;;;6.75;4.35;;;;;;;27.35;56.58;101451.13;5050891;28;20041;-59
2023/07/10 02:07:16;;;;;;;7.20;4.82;;;;;;;27.34;56.28;101450.25;5053181;28;20045;-56
2023/07/10 02:09:44;;;;;;;6.15;4.50;;;;;;;27.34;56.13;101452.97;5056670;28;20057;-55
2023/07/10 02:12:11;;;;;;;6.47;5.20;;;;;;;27.35;56.61;101453.84;5055601;28;20045;-55
2023/07/10 02:14:40;;;;;;;6.45;4.72;;;;;;;27.36;56.45;101452.81;5051494;28;20053;-55
2023/07/10 02:17:07;;;;;;;6.80;5.20;;;;;;;27.36;56.53;101452.81;5037262;28;20384;-54
2023/07/10 02:19:34;;;;;;;6.00;4.75;;;;;;;27.36;56.17;101453.66;5035794;28;20060;-54
2023/07/10 02:22:02;;;;;;;4.97;4.47;;;;;;;27.38;56.34;101449.91;5037316;28;20052;-55
2023/07/10 02:24:29;;;;;;;5.07;4.57;;;;;;;27.38;56.36;101449.91;5035785;28;20400;-55
2023/07/10 02:26:57;;;;;;;5.95;4.55;;;;;;;27.38;56.54;101452.63;5036812;28;20046;-55
2023/07/10 02:29:24;;;;;;;5.82;4.95;;;;;;;27.38;56.50;101444.47;5036912;28;20053;-54
2023/07/10 02:31:52;;;;;;;5.82;4.93;;;;;;;27.39;56.62;101443.44;5036962;28;20049;-55
2023/07/10 02:34:20;;;;;;;5.07;4.57;;;;;;;27.40;56.69;101450.63;5036328;28;20057;-52
2023/07/10 02:36:47;;;;;;;5.80;5.00;;;;;;;27.39;56.52;101447.03;5036616;28;20053;-55
2023/07/10 02:39:14;;;;;;;5.45;4.88;;;;;;;27.40;56.72;101439.72;5036331;28;20049;-52
2023/07/10 02:41:42;;;;;;;5.65;5.03;;;;;;;27.39;56.71;101444.31;5036721;28;20403;-54
2023/07/10 02:44:09;;;;;;;5.45;4.70;;;;;;;27.40;56.72;101439.72;5036094;28;20057;-53
2023/07/10 02:46:36;;;;;;;5.78;5.13;;;;;;;27.40;56.75;101435.16;5037539;28;20053;-54
2023/07/10 02:49:04;;;;;;;5.93;4.43;;;;;;;27.41;56.53;101441.44;5036218;28;20060;-55
2023/07/10 02:51:32;;;;;;;8.20;4.78;;;;;;;27.41;56.47;101439.56;5036697;28;20041;-56
2023/07/10 02:54:11;;;;;;;6.93;5.75;;;;;;;27.41;56.71;101436.84;5034844;28;20057;-54
2023/07/10 02:56:39;;;;;;;5.80;4.90;;;;;;;27.41;56.88;101445.00;5036459;28;20479;-52
2023/07/10 02:59:06;;;;;;;5.85;5.25;;;;;;;27.43;56.59;101447.53;5019286;28;20056;-54
2023/07/10 03:01:34;;;;;;;6.90;5.28;;;;;;;27.41;56.79;101447.72;5036228;28;20065;-54
2023/07/10 03:04:01;;;;;;;5.95;5.25;;;;;;;27.42;56.94;101449.41;5046341;28;20052;-55
2023/07/10 03:06:28;;;;;;;8.55;5.30;;;;;;;27.42;56.95;101448.56;5057187;28;20057;-59
2023/07/10 03:08:58;;;;;;;6.20;4.93;;;;;;;27.43;56.67;101452.97;5055854;28;20076;-60
2023/07/10 03:11:25;;;;;;;5.45;4.78;;;;;;;27.42;57.00;101448.56;5055974;28;20044;-60
2023/07/10 03:13:53;;;;;;;5.68;5.10;;;;;;;27.42;57.23;101454.84;5055866;28;20052;-59
2023/07/10 03:16:20;;;;;;;7.45;5.55;;;;;;;27.42;56.81;101452.13;5054643;28;20072;-59
2023/07/10 03:18:50;;;;;;;5.95;5.20;;;;;;;27.43;57.25;101455.69;5055378;28;20056;-59
2023/07/10 03:21:17;;;;;;;6.43;5.40;;;;;;;27.44;57.04;101454.69;5055772;28;20045;-60
2023/07/10 03:23:47;;;;;;;5.15;4.65;;;;;;;27.44;57.34;101463.69;5055088;28;20053;-60
2023/07/10 03:26:15;;;;;;;6.00;4.90;;;;;;;27.44;57.34;101454.69;5055406;28;20052;-59
2023/07/10 03:28:42;;;;;;;6.78;5.03;;;;;;;27.43;57.40;101453.84;5055924;28;20052;-59
2023/07/10 03:31:10;;;;;;;7.40;5.60;;;;;;;27.43;57.35;101462.00;5055882;28;20049;-59
2023/07/10 03:33:37;;;;;;;7.20;5.72;;;;;;;27.41;57.88;101474.06;5049163;28;20046;-59
2023/07/10 03:36:07;;;;;;;6.57;5.32;;;;;;;27.41;57.93;101472.19;5035564;28;20045;-58
2023/07/10 03:38:35;;;;;;;8.95;5.55;;;;;;;27.39;58.28;101470.63;5035220;28;20041;-59
2023/07/10 03:41:03;;;;;;;6.30;5.50;;;;;;;27.39;58.37;101476.06;5035036;28;20049;-59
2023/07/10 03:43:30;;;;;;;7.75;6.40;;;;;;;27.38;58.25;101475.22;5035439;28;20056;-59
2023/07/10 03:45:58;;;;;;;7.15;6.45;;;;;;;27.36;58.27;101475.41;5034986;28;20045;-63
2023/07/10 03:48:26;;;;;;;8.77;6.47;;;;;;;27.36;58.45;101474.56;5035034;28;20045;-58
2023/07/10 03:50:54;;;;;;;6.72;6.05;;;;;;;27.35;58.60;101472.88;5033885;28;20054;-58
2023/07/10 03:53:21;;;;;;;7.45;6.45;;;;;;;27.35;58.63;101475.59;5035375;28;20045;-58
2023/07/10 03:55:50;;;;;;;7.00;6.30;;;;;;;27.35;58.58;101478.31;5034846;28;20049;-59
2023/07/10 03:58:27;;;;;;;7.22;6.40;;;;;;;27.35;58.49;101481.88;5035017;28;20041;-63
2023/07/10 04:00:57;;;;;;;7.65;6.82;;;;;;;27.35;58.33;101472.88;5034984;28;20056;-63
2023/07/10 04:03:29;;;;;;;10.13;6.95;;;;;;;27.35;58.44;101475.59;5038008;28;20042;-63
2023/07/10 04:05:58;;;;;;;8.25;6.95;;;;;;;27.34;58.28;101474.72;5048342;28;20052;-61
2023/07/10 04:08:34;;;;;;;8.20;6.95;;;;;;;27.33;58.40;101483.06;5054914;28;20056;-63
2023/07/10 04:11:12;;;;;;;9.02;6.85;;;;;;;27.33;58.10;101483.06;5054481;28;20048;-63
2023/07/10 04:13:39;;;;;;;7.05;6.35;;;;;;;27.32;58.31;101482.22;5054922;28;20045;-63
2023/07/10 04:16:16;;;;;;;9.05;6.53;;;;;;;27.33;58.19;101477.63;5044186;28;20487;-58
2023/07/10 04:18:46;;;;;;;8.15;6.72;;;;;;;27.33;58.11;101477.63;5034631;28;20045;-59
2023/07/10 04:21:20;;;;;;;6.97;5.88;;;;;;;27.33;58.19;101473.03;5033051;28;20072;-59
2023/07/10 04:23:48;;;;;;;7.25;6.25;;;;;;;27.33;58.24;101475.75;5034933;28;20050;-59
2023/07/10 04:26:24;;;;;;;7.72;5.85;;;;;;;27.32;57.79;101476.78;5033394;28;20045;-63
2023/07/10 04:28:54;;;;;;;7.63;6.80;;;;;;;27.32;57.76;101476.78;5034285;28;20052;-63
2023/07/10 04:31:23;;;;;;;8.18;6.43;;;;;;;27.32;57.56;101484.94;5033451;28;20506;-63
2023/07/10 04:33:52;;;;;;;8.10;6.72;;;;;;;27.32;57.79;101489.53;5034516;28;20045;-63
2023/07/10 04:36:20;;;;;;;7.90;7.10;;;;;;;27.31;57.98;101501.44;5034530;28;20056;-59
2023/07/10 04:38:48;;;;;;;6.72;5.68;;;;;;;27.32;57.89;101497.69;5032803;28;20048;-59
2023/07/10 04:41:19;;;;;;;7.70;5.85;;;;;;;27.32;57.86;101509.41;5034530;28;20042;-59
2023/07/10 04:43:47;;;;;;;8.75;6.30;;;;;;;27.34;57.73;101501.06;5034035;28;20049;-58
2023/07/10 04:46:16;;;;;;;7.78;6.72;;;;;;;27.33;57.75;101502.09;5033821;28;20049;-63
2023/07/10 04:48:44;;;;;;;7.10;6.32;;;;;;;27.34;57.98;101507.34;5033966;28;20057;-63
2023/07/10 04:51:13;;;;;;;6.57;5.50;;;;;;;27.35;57.97;101506.34;5034053;28;20041;-63
2023/07/10 04:53:41;;;;;;;7.28;5.93;;;;;;;27.36;57.93;101507.19;5033884;28;20053;-63
2023/07/10 04:56:11;;;;;;;6.80;5.78;;;;;;;27.36;57.96;101512.63;5033741;28;20049;-62
2023/07/10 04:58:54;;;;;;;7.45;5.97;;;;;;;27.38;57.77;101510.59;5033761;28;20057;-63
2023/07/10 05:01:29;;;;;;;8.55;6.15;;;;;;;27.38;57.54;101518.75;5032882;28;20053;-62
2023/07/10 05:03:57;;;;;;;7.57;6.40;;;;;;;27.37;57.67;101508.88;5035637;28;20403;-62
2023/07/10 05:06:25;;;;;;;8.93;6.47;;;;;;;27.36;57.90;101509.91;5044350;28;20041;-64
2023/07/10 05:08:54;;;;;;;7.68;6.15;;;;;;;27.38;57.86;101510.59;5053616;28;20387;-64
2023/07/10 05:11:24;;;;;;;7.45;5.95;;;;;;;27.39;58.07;101514.16;5053247;28;20044;-64
2023/07/10 05:13:52;;;;;;;7.78;6.43;;;;;;;27.39;57.67;101517.75;5053672;28;20044;-64
2023/07/10 05:16:19;;;;;;;6.05;5.30;;;;;;;27.39;57.64;101519.59;5053205;28;20379;-59
2023/07/10 05:18:47;;;;;;;6.53;5.78;;;;;;;27.41;57.72;101517.56;5053533;28;20037;-59
2023/07/10 05:21:15;;;;;;;8.90;5.85;;;;;;;27.40;57.88;101522.16;5053301;28;20048;-60
2023/07/10 05:23:42;;;;;;;8.23;6.60;;;;;;;27.40;57.65;101527.59;5051841;28;20060;-59
2023/07/10 05:26:16;;;;;;;7.60;5.93;;;;;;;27.41;57.52;101526.56;5053537;28;20056;-59
2023/07/10 05:28:44;;;;;;;7.15;6.00;;;;;;;27.41;57.68;101526.56;5053322;28;20045;-59
2023/07/10 05:31:12;;;;;;;7.03;5.70;;;;;;;27.41;57.39;101518.41;5053189;28;20044;-59
2023/07/10 05:33:40;;;;;;;6.75;5.72;;;;;;;27.42;57.60;101516.53;5053487;28;20045;-60
2023/07/10 05:36:11;;;;;;;9.65;5.55;;;;;;;27.42;57.60;101520.09;5033963;28;20518;-59
2023/07/10 05:38:39;;;;;;;9.48;5.70;;;;;;;27.43;57.82;101521.81;5033677;28;20038;-59
2023/07/10 05:41:07;;;;;;;6.75;5.80;;;;;;;27.43;57.77;101526.38;5032869;28;20506;-59
2023/07/10 05:43:35;;;;;;;7.57;5.80;;;;;;;27.44;57.51;101525.41;5032064;28;20049;-59
2023/07/10 05:46:03;;;;;;;6.65;5.53;;;;;;;27.43;57.61;101532.69;5033391;28;20045;-63
2023/07/10 05:48:31;;;;;;;5.30;4.80;;;;;;;27.44;57.49;101537.13;5032997;28;20048;-64
2023/07/10 05:50:59;;;;;;;6.38;5.60;;;;;;;27.45;57.26;101538.81;5032649;28;20053;-64
2023/07/10 05:53:27;;;;;;;6.88;5.80;;;;;;;27.46;57.64;101535.06;5032979;28;20056;-64
2023/07/10 05:55:56;;;;;;;8.23;5.63;;;;;;;27.45;57.53;101536.09;5031825;28;20526;-60
2023/07/10 05:58:28;;;;;;;;;;;;;;;27.45;57.63;101530.66;5033396;28;20045;-59
2023/07/10 06:00:58;;;;;;;5.75;5.15;;;;;;;27.47;57.72;101534.06;5033287;28;19928;-59
2023/07/10 06:03:30;;;;;;;9.80;5.82;;;;;;;27.48;57.43;101538.47;5033037;28;20053;-59
2023/07/10 06:06:01;;;;;;;6.53;5.35;;;;;;;27.48;57.36;101541.19;5037743;28;20056;-63
2023/07/10 06:08:30;;;;;;;7.63;5.65;;;;;;;27.48;57.62;101540.34;5031712;28;20415;-64
2023/07/10 06:10:57;;;;;;;7.38;5.20;;;;;;;27.48;57.20;101541.19;5032794;28;20071;-64
2023/07/10 06:13:25;;;;;;;6.78;5.68;;;;;;;27.49;57.40;101544.75;5032811;28;20053;-63
2023/07/10 06:15:56;;;;;;;6.68;5.45;;;;;;;27.49;57.53;101531.16;5032768;28;20046;-59
2023/07/10 06:18:24;;;;;;;6.82;5.15;;;;;;;27.51;57.36;101540.03;5033053;28;20411;-64
2023/07/10 06:20:54;;;;;;;6.53;4.93;;;;;;;27.50;57.42;101533.72;5033414;28;20144;-64
2023/07/10 06:23:22;;;;;;;6.07;5.07;;;;;;;27.51;57.34;101532.72;5032580;28;20507;-64
2023/07/10 06:25:52;;;;;;;5.97;4.88;;;;;;;27.54;57.23;101534.22;5032506;28;20049;-63
2023/07/10 06:28:20;;;;;;;6.13;4.80;;;;;;;27.53;57.15;101533.38;5033277;28;20053;-63
2023/07/10 06:31:14;;;;;;;6.50;5.47;;;;;;;27.54;57.46;101531.50;5032525;28;20045;-63
2023/07/10 06:33:42;;;;;;;6.43;5.55;;;;;;;27.56;57.31;101534.91;5032070;28;20080;-64
2023/07/10 06:36:09;;;;;;;8.27;4.93;;;;;;;27.55;57.40;101533.22;5032454;28;20060;-59
2023/07/10 06:38:37;;;;;;;6.55;5.13;;;;;;;27.57;57.28;101529.28;5032294;28;20049;-60
2023/07/10 06:41:07;;;;;;;5.85;5.15;;;;;;;27.57;57.09;101526.56;5033142;28;20403;-60
2023/07/10 06:43:35;;;;;;;6.40;5.03;;;;;;;27.58;57.20;101535.59;5032356;28;20060;-59
2023/07/10 06:46:02;;;;;;;6.75;5.40;;;;;;;27.57;57.19;101526.56;5032910;28;20502;-62
2023/07/10 06:48:30;;;;;;;7.15;5.32;;;;;;;27.58;57.37;101531.00;5032190;28;20403;-64
2023/07/10 06:50:58;;;;;;;8.05;5.22;;;;;;;27.59;57.29;101530.00;5032645;28;20064;-63
2023/07/10 06:53:25;;;;;;;6.53;5.13;;;;;;;27.60;57.40;101528.97;5032605;28;20049;-63
2023/07/10 06:56:00;;;;;;;7.40;4.93;;;;;;;27.61;57.41;101525.22;5036652;28;20045;-60
2023/07/10 06:58:30;;;;;;;10.82;5.82;;;;;;;27.63;57.35;101526.91;5036219;28;20049;-63
2023/07/10 07:00:58;;;;;;;9.20;7.80;;;;;;;27.64;58.07;101526.75;5035763;28;20049;-61
2023/07/10 07:03:27;;;;;;;8.18;7.00;;;;;;;27.64;58.34;101524.03;5033665;28;20053;-60
2023/07/10 07:05:55;;;;;;;9.27;7.10;;;;;;;27.68;58.58;101521.81;5036906;28;20068;-61
2023/07/10 07:08:24;;;;;;;8.20;6.80;;;;;;;27.71;58.54;101524.19;5046194;28;20049;-56
2023/07/10 07:10:53;;;;;;;7.38;6.38;;;;;;;27.73;58.06;101530.31;5040368;28;20383;-59
2023/07/10 07:13:20;;;;;;;9.05;5.90;;;;;;;27.72;58.13;101529.47;5035031;28;20674;-58
2023/07/10 07:15:59;;;;;;;6.80;5.93;;;;;;;27.73;58.64;101523.03;5035587;28;20399;-59
2023/07/10 07:18:27;;;;;;;7.40;5.95;;;;;;;27.74;58.31;101529.31;5035468;28;20050;-63
2023/07/10 07:20:56;;;;;;;11.38;6.93;;;;;;;27.74;58.51;101529.31;5035791;28;20483;-63
2023/07/10 07:23:24;;;;;;;8.27;6.18;;;;;;;27.76;58.89;101521.84;5035547;28;20068;-64
2023/07/10 07:25:56;;;;;;;8.50;6.47;;;;;;;27.78;58.82;101531.53;5035327;28;20046;-59
2023/07/10 07:28:23;;;;;;;8.98;7.13;;;;;;;27.81;58.84;101525.75;5035808;28;20053;-60
2023/07/10 07:30:51;;;;;;;12.88;7.22;;;;;;;27.85;58.58;101531.72;5034435;28;20379;-63
2023/07/10 07:33:20;;;;;;;7.97;7.15;;;;;;;27.87;58.56;101523.34;5035431;28;20052;-63
2023/07/10 07:35:48;;;;;;;7.35;6.65;;;;;;;27.90;58.76;101529.31;5035727;28;20041;-62
2023/07/10 07:38:16;;;;;;;8.90;6.70;;;;;;;27.91;58.71;101531.00;5035763;28;20052;-59
2023/07/10 07:40:44;;;;;;;7.82;6.72;;;;;;;27.93;58.43;101522.69;5035661;28;20479;-58
2023/07/10 07:43:13;;;;;;;8.43;7.07;;;;;;;27.94;58.54;101522.50;5035115;28;20045;-59
2023/07/10 07:45:56;;;;;;;8.70;7.28;;;;;;;27.95;58.34;101529.63;5034565;28;20487;-59
2023/07/10 07:48:25;;;;;;;8.02;7.22;;;;;;;27.95;58.07;101523.34;5035270;28;20053;-60
2023/07/10 07:51:05;;;;;;;8.45;7.57;;;;;;;27.94;58.08;101522.50;5035550;28;20052;-60
2023/07/10 07:53:35;;;;;;;7.40;6.53;;;;;;;27.93;58.52;101522.69;5035067;28;20053;-60
2023/07/10 07:56:02;;;;;;;7.80;6.72;;;;;;;27.91;58.18;101520.13;5034572;28;20053;-59
2023/07/10 07:58:30;;;;;;;8.10;6.38;;;;;;;27.90;58.03;101526.59;5034849;28;20045;-59
2023/07/10 08:00:59;;;;;;;8.50;6.35;;;;;;;27.90;57.61;101523.03;5035130;28;20048;-59
2023/07/10 08:03:27;;;;;;;9.32;6.68;;;;;;;27.90;57.69;101523.03;5034967;28;20050;-59
2023/07/10 08:05:55;;;;;;;8.38;6.38;;;;;;;27.88;57.29;101520.50;5033758;28;20041;-59
2023/07/10 08:08:23;;;;;;;8.23;7.18;;;;;;;27.88;57.15;101520.50;5034610;28;20058;-60
2023/07/10 08:10:51;;;;;;;7.35;6.22;;;;;;;27.88;57.13;101511.47;5034901;28;20052;-60
2023/07/10 08:13:19;;;;;;;7.45;6.35;;;;;;;27.89;57.04;101508.56;5034786;28;20156;-60
2023/07/10 08:15:47;;;;;;;9.02;6.45;;;;;;;27.89;57.17;101513.16;5034679;28;20056;-60
2023/07/10 08:18:14;;;;;;;8.07;6.13;;;;;;;27.88;57.14;101504.16;5034802;28;20399;-60
2023/07/10 08:20:42;;;;;;;6.97;6.10;;;;;;;27.87;56.72;101510.59;5034700;28;20052;-59
2023/07/10 08:23:09;;;;;;;8.80;6.57;;;;;;;27.88;56.88;101512.31;5034563;28;20046;-59
2023/07/10 08:25:38;;;;;;;6.78;6.00;;;;;;;27.88;56.36;101504.16;5034416;28;20049;-60
2023/07/10 08:28:05;;;;;;;8.35;6.10;;;;;;;27.90;55.83;101510.25;5034387;28;20050;-60
2023/07/10 08:30:33;;;;;;;8.70;6.05;;;;;;;27.90;56.03;101515.72;5034234;28;20049;-60
2023/07/10 08:33:00;;;;;;;6.72;5.32;;;;;;;27.90;56.10;101506.69;5034454;28;20049;-60
2023/07/10 08:35:27;;;;;;;8.10;6.05;;;;;;;27.89;55.82;101507.72;5033939;28;20049;-60
2023/07/10 08:37:55;;;;;;;6.53;5.60;;;;;;;27.90;55.81;101506.69;5035059;28;20053;-59
2023/07/10 08:40:29;;;;;;;6.70;5.70;;;;;;;27.90;55.38;101512.97;5034403;28;20041;-59
2023/07/10 08:42:59;;;;;;;6.45;5.75;;;;;;;27.90;55.27;101507.53;5034315;28;20041;-59
2023/07/10 08:45:37;;;;;;;6.22;5.57;;;;;;;27.90;54.83;101507.53;5034370;28;20053;-59
2023/07/10 08:48:24;;;;;;;6.90;5.43;;;;;;;27.90;54.62;101504.81;5034011;28;20042;-58
2023/07/10 08:50:56;;;;;;;7.10;5.28;;;;;;;27.91;54.06;101506.50;5034136;28;20045;-58
2023/07/10 08:53:28;;;;;;;6.53;5.32;;;;;;;27.91;54.47;101501.06;5020248;28;20045;-59
2023/07/10 08:56:03;;;;;;;9.60;5.60;;;;;;;27.92;54.11;101501.94;5033930;28;20050;-59
2023/07/10 08:58:34;;;;;;;5.72;4.95;;;;;;;27.91;54.35;101506.50;5033815;28;20479;-59
2023/07/10 09:01:08;;;;;;;8.60;5.18;;;;;;;27.91;54.41;101498.34;5033763;28;20053;-58
2023/07/10 09:03:41;;;;;;;7.53;4.90;;;;;;;27.93;54.32;101495.47;5033906;28;20045;-59
2023/07/10 09:06:34;;;;;;;7.55;5.13;;;;;;;27.92;54.33;101500.06;5033988;28;20080;-59
2023/07/10 09:09:10;;;;;;;6.25;5.22;;;;;;;27.93;54.01;101490.88;5032995;28;20053;-59
2023/07/10 09:11:38;;;;;;;7.07;5.05;;;;;;;27.93;53.91;101493.59;5034148;28;20049;-58
2023/07/10 09:14:34;;;;;;;7.78;5.03;;;;;;;27.95;53.65;101494.25;5033769;28;20423;-59
2023/07/10 09:17:12;;;;;;;7.47;5.20;;;;;;;27.96;53.66;101493.25;5033631;28;20057;-59
2023/07/10 09:19:46;;;;;;;6.95;4.75;;;;;;;27.98;54.07;101499.38;5033561;28;20045;-60
2023/07/10 09:22:14;;;;;;;9.07;5.80;;;;;;;27.98;53.81;101499.38;5034012;28;20395;-60
2023/07/10 09:24:41;;;;;;;6.68;5.35;;;;;;;27.98;53.83;101493.91;5033664;28;20419;-59
2023/07/10 09:27:12;;;;;;;7.13;5.75;;;;;;;27.99;53.82;101484.72;5033618;28;20071;-59
2023/07/10 09:29:42;;;;;;;8.50;5.32;;;;;;;27.99;54.08;101487.44;5033506;28;20041;-59
2023/07/10 09:32:18;;;;;;;8.18;5.40;;;;;;;27.99;53.88;101492.03;5031823;28;20053;-60
2023/07/10 09:34:50;;;;;;;7.13;5.22;;;;;;;28.00;54.01;101493.75;5033326;28;20046;-60
2023/07/10 09:37:23;;;;;;;6.55;4.28;;;;;;;28.01;54.30;101493.59;5033788;28;20050;-59
2023/07/10 09:39:50;;;;;;;7.30;5.50;;;;;;;28.01;54.18;101482.69;5033338;28;20045;-59
2023/07/10 09:42:26;;;;;;;6.75;5.43;;;;;;;28.03;53.91;101479.78;5033166;28;20407;-59
2023/07/10 09:44:55;;;;;;;6.30;5.18;;;;;;;28.01;53.79;101485.41;5033636;28;20068;-59
2023/07/10 09:47:22;;;;;;;6.40;5.57;;;;;;;28.02;53.59;101478.94;5031643;28;20415;-60
2023/07/10 09:49:59;;;;;;;6.82;5.13;;;;;;;28.03;53.75;101479.78;5033285;28;20054;-60
2023/07/10 09:52:32;;;;;;;6.40;5.07;;;;;;;28.03;54.11;101480.63;5033294;28;20434;-60
2023/07/10 09:55:11;;;;;;;7.13;5.72;;;;;;;28.04;54.13;101484.22;5033039;28;20045;-59
2023/07/10 09:57:47;;;;;;;9.95;4.85;;;;;;;28.04;54.16;101476.91;5033676;28;20057;-59
2023/07/10 10:00:17;;;;;;;8.20;5.55;;;;;;;28.04;54.15;101473.34;5032918;28;20042;-59
2023/07/10 10:02:49;;;;;;;7.97;5.45;;;;;;;28.05;54.35;101469.59;5033249;28;20061;-59
2023/07/10 10:05:21;;;;;;;;;;;;;;;28.05;54.37;101478.59;5033356;28;20056;-59
2023/07/10 10:07:53;;;;;;;6.00;5.30;;;;;;;28.07;54.25;101471.09;5032923;28;19925;-59
2023/07/10 10:10:22;;;;;;;5.88;5.10;;;;;;;28.09;54.20;101469.06;5032620;28;20041;-59
2023/07/10 10:13:21;;;;;;;7.60;5.60;;;;;;;28.09;54.29;101474.50;5032600;28;20060;-59
2023/07/10 10:16:06;;;;;;;7.75;5.35;;;;;;;28.09;54.19;101471.78;5012955;28;20591;-59
2023/07/10 10:18:49;;;;;;;7.35;5.55;;;;;;;28.09;54.37;101466.34;5014209;28;20057;-59
2023/07/10 10:21:18;;;;;;;;;;;;;;;28.06;54.67;101463.97;5032982;28;20045;-60
2023/07/10 10:23:49;;;;;;;7.72;5.80;;;;;;;28.09;54.36;101468.22;5032983;28;19921;-60
2023/07/10 10:26:31;;;;;;;7.53;5.07;;;;;;;28.07;54.46;101460.19;5032712;28;20049;-59
2023/07/10 10:29:04;;;;;;;8.52;5.97;;;;;;;28.07;54.51;101459.34;5033880;28;20049;-59
2023/07/10 10:31:39;;;;;;;7.43;5.50;;;;;;;28.07;54.72;101464.81;5036737;28;20050;-59
2023/07/10 10:34:30;;;;;;;6.55;5.32;;;;;;;28.08;54.88;101467.38;5035502;28;20045;-59
2023/07/10 10:37:15;;;;;;;6.90;6.20;;;;;;;28.07;54.56;101462.09;5037038;28;20376;-59
2023/07/10 10:39:56;;;;;;;6.03;5.40;;;;;;;28.07;54.94;101460.19;5036688;28;20053;-59
2023/07/10 10:42:24;;;;;;;5.45;4.72;;;;;;;28.07;54.72;101457.47;5036396;28;20408;-59
2023/07/10 10:45:00;;;;;;;6.53;5.30;;;;;;;28.07;54.62;101453.91;5036364;28;20415;-59
2023/07/10 10:47:43;;;;;;;6.00;5.40;;;;;;;28.08;55.00;101447.47;5036567;28;20056;-59
2023/07/10 10:50:42;;;;;;;6.75;5.75;;;;;;;28.08;55.18;101453.75;5036229;28;20046;-59
2023/07/10 10:53:27;;;;;;;6.40;5.68;;;;;;;28.08;54.80;101447.47;5036252;28;20046;-60
2023/07/10 10:56:00;;;;;;;6.18;5.28;;;;;;;28.10;55.09;101448.13;5036580;28;20045;-59
2023/07/10 10:58:52;;;;;;;5.65;5.07;;;;;;;28.09;55.11;101446.44;5036134;28;20060;-59
2023/07/10 11:01:30;;;;;;;6.53;5.03;;;;;;;28.09;54.99;101441.84;5036072;28;20045;-59
2023/07/10 11:04:09;;;;;;;7.25;5.40;;;;;;;28.12;55.17;101437.94;5035099;28;20049;-59
2023/07/10 11:06:51;;;;;;;6.43;5.63;;;;;;;28.10;55.20;101437.25;5036117;28;20391;-58
2023/07/10 11:09:41;;;;;;;6.53;5.68;;;;;;;28.10;55.28;101432.63;5036073;28;20444;-59
2023/07/10 11:12:31;;;;;;;6.38;5.75;;;;;;;28.12;55.71;101426.19;5035922;28;20045;-60
2023/07/10 11:15:19;;;;;;;5.57;4.95;;;;;;;28.12;55.63;101423.47;5035843;28;20056;-59
2023/07/10 11:17:50;;;;;;;9.18;6.28;;;;;;;28.12;55.33;101413.44;5036205;28;20061;-59
2023/07/10 11:20:19;;;;;;;8.65;6.07;;;;;;;28.11;55.41;101411.72;5035844;28;20045;-60
2023/07/10 11:22:55;;;;;;;6.60;5.60;;;;;;;28.12;55.67;101405.25;5036078;28;20060;-60
2023/07/10 11:25:44;;;;;;;7.38;5.68;;;;;;;28.13;55.45;101406.09;5035978;28;20056;-60
2023/07/10 11:28:20;;;;;;;5.95;5.13;;;;;;;28.14;55.48;101400.47;5035567;28;20053;-58
2023/07/10 11:31:11;;;;;;;6.80;5.18;;;;;;;28.18;55.91;101400.97;5051059;28;20045;-58
2023/07/10 11:33:42;;;;;;;5.65;5.05;;;;;;;28.19;56.10;101400.78;5056059;28;20052;-60
2023/07/10 11:36:23;;;;;;;8.07;5.78;;;;;;;28.20;55.83;101398.94;5055511;28;20510;-59
2023/07/10 11:39:10;;;;;;;7.30;6.03;;;;;;;28.18;56.21;101390.94;5055637;28;20053;-59
2023/07/10 11:41:58;;;;;;;6.45;5.57;;;;;;;28.18;56.18;101393.66;5055323;28;20048;-59
2023/07/10 11:44:28;;;;;;;6.68;5.55;;;;;;;28.18;56.20;101388.19;5055139;28;20041;-59
2023/07/10 11:47:05;;;;;;;6.15;5.25;;;;;;;28.19;56.24;101386.31;5055257;28;20053;-59